Time;durP1;ratioP1;P1;durP2;ratioP2;P2;SDS_P1;SDS_P2;PMS_P1;PMS_P2;Temp;Humidity;BMP_temperature;BMP_pressure;BME280_temperature;BME280_humidity;BME280_pressure;Samples;Min_cycle;Max_cycle;Signal;HPM_P1;HPM_P2
2022/04/20 00:00:15;;;;;;;;;;;14.70;55.10;;;;;;5101939;28;19918;-67
2022/04/20 00:02:41;;;;;;;;;;;14.60;55.10;;;;;;5102739;28;19900;-66
2022/04/20 00:05:07;;;;;;;;;;;14.60;55.20;;;;;;5102424;28;20402;-67
2022/04/20 00:07:33;;;;;;;;;;;14.60;55.20;;;;;;5102463;28;19946;-67
2022/04/20 00:09:59;;;;;;;;;;;14.60;55.20;;;;;;5102350;28;19908;-66
2022/04/20 00:12:25;;;;;;;;;;;14.60;55.20;;;;;;5102359;28;20149;-67
2022/04/20 00:14:51;;;;;;;;;;;14.60;55.20;;;;;;5102278;28;19903;-66
2022/04/20 00:17:16;;;;;;;;;;;14.60;55.20;;;;;;5102277;28;19979;-66
2022/04/20 00:19:42;;;;;;;;;;;14.60;55.20;;;;;;5102243;28;19908;-66
2022/04/20 00:22:08;;;;;;;;;;;14.60;55.10;;;;;;5102102;28;19908;-67
2022/04/20 00:24:33;;;;;;;;;;;14.60;55.00;;;;;;5102091;28;19975;-66
2022/04/20 00:26:59;;;;;;;;;;;14.60;55.00;;;;;;5102011;28;20184;-66
2022/04/20 00:29:24;;;;;;;;;;;14.60;55.00;;;;;;5101973;28;19918;-67
2022/04/20 00:31:50;;;;;;;;;;;14.60;55.10;;;;;;5101968;28;20249;-67
2022/04/20 00:34:15;;;;;;;;;;;14.60;55.10;;;;;;5101912;28;20146;-67
2022/04/20 00:36:41;;;;;;;;;;;14.60;55.10;;;;;;5101855;28;19904;-67
2022/04/20 00:39:07;;;;;;;;;;;14.60;55.20;;;;;;5101861;28;19908;-66
2022/04/20 00:41:32;;;;;;;;;;;14.60;55.20;;;;;;5101792;28;19908;-66
2022/04/20 00:44:02;;;;;;;;;;;14.60;55.10;;;;;;5101695;28;20206;-67
2022/04/20 00:46:28;;;;;;;;;;;14.60;55.10;;;;;;5101616;28;19934;-66
2022/04/20 00:48:55;;;;;;;;;;;14.60;55.10;;;;;;5101660;28;19908;-66
2022/04/20 00:51:20;;;;;;;;;;;14.60;55.10;;;;;;5101544;28;19945;-66
2022/04/20 00:53:46;;;;;;;;;;;14.60;55.10;;;;;;5101532;28;19979;-66
2022/04/20 00:56:12;;;;;;;;;;;14.50;55.10;;;;;;5101310;28;19920;-66
2022/04/20 00:58:39;;;;;;;;;;;14.50;55.10;;;;;;5101468;28;19907;-67
2022/04/20 01:01:04;;;;;;;;;;;14.50;55.10;;;;;;5101418;28;20382;-67
2022/04/20 01:03:30;;;;;;;;;;;14.50;55.10;;;;;;5101298;28;19984;-66
2022/04/20 01:05:55;;;;;;;;;;;14.50;55.10;;;;;;5101207;28;19910;-66
2022/04/20 01:08:21;;;;;;;;;;;14.60;55.00;;;;;;5101212;28;20228;-67
2022/04/20 01:10:47;;;;;;;;;;;14.60;55.00;;;;;;5100360;28;19961;-66
2022/04/20 01:13:12;;;;;;;;;;;14.50;55.10;;;;;;5100936;28;19908;-66
2022/04/20 01:15:38;;;;;;;;;;;14.50;55.10;;;;;;5101082;28;19916;-67
2022/04/20 01:18:10;;;;;;;;;;;14.60;55.20;;;;;;5101299;28;19953;-67
2022/04/20 01:20:36;;;;;;;;;;;14.50;55.10;;;;;;5100934;28;20185;-66
2022/04/20 01:23:01;;;;;;;;;;;14.50;55.10;;;;;;5100954;28;19915;-66
2022/04/20 01:25:27;;;;;;;;;;;14.50;55.10;;;;;;5100829;28;19918;-66
2022/04/20 01:27:53;;;;;;;;;;;14.50;55.10;;;;;;5100896;28;19908;-66
2022/04/20 01:30:18;;;;;;;;;;;14.50;55.10;;;;;;5100819;28;19915;-67
2022/04/20 01:32:44;;;;;;;;;;;14.50;55.10;;;;;;5100837;28;19900;-66
2022/04/20 01:35:09;;;;;;;;;;;14.50;55.20;;;;;;5100744;28;19955;-66
2022/04/20 01:37:35;;;;;;;;;;;14.50;55.10;;;;;;5100746;28;19916;-67
2022/04/20 01:40:01;;;;;;;;;;;14.50;55.10;;;;;;5100660;28;19931;-66
2022/04/20 01:42:26;;;;;;;;;;;14.50;55.10;;;;;;5100637;28;19954;-66
2022/04/20 01:44:52;;;;;;;;;;;14.40;55.30;;;;;;5100530;28;19919;-67
2022/04/20 01:47:17;;;;;;;;;;;14.50;55.20;;;;;;5100494;28;19912;-67
2022/04/20 01:49:43;;;;;;;;;;;14.40;55.10;;;;;;5100522;28;19911;-66
2022/04/20 01:52:09;;;;;;;;;;;14.40;55.10;;;;;;5100422;28;19953;-67
2022/04/20 01:54:34;;;;;;;;;;;14.40;55.10;;;;;;5100403;28;19908;-66
2022/04/20 01:57:00;;;;;;;;;;;14.50;55.10;;;;;;5100206;28;19923;-67
2022/04/20 01:59:25;;;;;;;;;;;14.50;55.10;;;;;;5100361;28;20005;-67
2022/04/20 02:04:35;;;;;;;;;;;14.40;55.10;;;;;;5100235;28;20245;-67
2022/04/20 02:07:00;;;;;;;;;;;14.40;55.10;;;;;;5100194;28;19900;-66
2022/04/20 02:09:26;;;;;;;;;;;14.40;55.10;;;;;;5100141;28;19957;-67
2022/04/20 02:11:52;;;;;;;;;;;14.40;55.10;;;;;;5100184;28;19915;-67
2022/04/20 02:14:17;;;;;;;;;;;14.40;55.10;;;;;;5100083;28;19915;-67
2022/04/20 02:16:43;;;;;;;;;;;14.40;55.10;;;;;;5100123;28;20196;-67
2022/04/20 02:19:08;;;;;;;;;;;14.40;55.10;;;;;;5100039;28;20354;-67
2022/04/20 02:21:34;;;;;;;;;;;14.40;55.00;;;;;;5100025;28;19900;-66
2022/04/20 02:23:59;;;;;;;;;;;14.40;55.10;;;;;;5099712;28;19967;-66
2022/04/20 02:26:25;;;;;;;;;;;14.40;55.10;;;;;;5099909;28;19912;-67
2022/04/20 02:28:50;;;;;;;;;;;14.40;55.00;;;;;;5099881;28;19941;-66
2022/04/20 02:31:16;;;;;;;;;;;14.40;55.00;;;;;;5099888;28;19904;-67
2022/04/20 02:33:42;;;;;;;;;;;14.40;55.00;;;;;;5099881;28;19950;-67
2022/04/20 02:36:08;;;;;;;;;;;14.40;55.00;;;;;;5099863;28;19931;-67
2022/04/20 02:38:34;;;;;;;;;;;14.40;54.90;;;;;;5099856;28;19908;-67
2022/04/20 02:41:00;;;;;;;;;;;14.50;54.80;;;;;;5099713;28;19914;-66
2022/04/20 02:43:25;;;;;;;;;;;14.50;54.80;;;;;;5099776;28;19908;-67
2022/04/20 02:45:51;;;;;;;;;;;14.50;54.80;;;;;;5099685;28;20169;-66
2022/04/20 02:48:16;;;;;;;;;;;14.50;54.80;;;;;;5099772;28;19961;-66
2022/04/20 02:50:43;;;;;;;;;;;14.50;54.80;;;;;;5099769;28;20225;-67
2022/04/20 02:53:08;;;;;;;;;;;14.50;54.80;;;;;;5099856;28;19908;-66
2022/04/20 02:55:34;;;;;;;;;;;14.40;54.90;;;;;;5099929;28;19943;-67
2022/04/20 02:58:00;;;;;;;;;;;14.30;55.10;;;;;;5099478;28;20235;-66
2022/04/20 03:00:25;;;;;;;;;;;14.40;55.10;;;;;;5099552;28;20192;-66
2022/04/20 03:02:51;;;;;;;;;;;14.30;55.00;;;;;;5099619;28;19937;-66
2022/04/20 03:05:16;;;;;;;;;;;14.30;55.10;;;;;;5099463;28;19916;-66
2022/04/20 03:07:42;;;;;;;;;;;14.30;55.20;;;;;;5099601;28;19908;-67
2022/04/20 03:10:08;;;;;;;;;;;14.30;55.30;;;;;;5099506;28;19963;-67
2022/04/20 03:12:33;;;;;;;;;;;14.30;55.30;;;;;;5099583;28;19983;-66
2022/04/20 03:14:59;;;;;;;;;;;14.20;55.40;;;;;;5099451;28;19900;-67
2022/04/20 03:17:25;;;;;;;;;;;14.10;55.40;;;;;;5099500;28;20291;-66
2022/04/20 03:19:51;;;;;;;;;;;14.10;55.50;;;;;;5099660;28;19985;-67
2022/04/20 03:22:17;;;;;;;;;;;14.10;55.30;;;;;;5099647;28;19908;-67
2022/04/20 03:24:42;;;;;;;;;;;14.20;55.40;;;;;;5099545;28;19931;-66
2022/04/20 03:27:08;;;;;;;;;;;14.10;55.30;;;;;;5099379;28;19983;-67
2022/04/20 03:29:34;;;;;;;;;;;14.10;55.50;;;;;;5099390;28;19915;-67
2022/04/20 03:32:01;;;;;;;;;;;14.10;55.40;;;;;;5099529;28;19943;-67
2022/04/20 03:34:28;;;;;;;;;;;14.10;55.50;;;;;;5100138;28;19946;-67
2022/04/20 03:36:53;;;;;;;;;;;14.10;55.40;;;;;;5102989;28;20127;-66
2022/04/20 03:39:19;;;;;;;;;;;14.10;55.30;;;;;;5102989;28;19933;-67
2022/04/20 03:41:44;;;;;;;;;;;14.20;55.20;;;;;;5101616;28;19915;-67
2022/04/20 03:44:10;;;;;;;;;;;14.20;55.10;;;;;;5103206;28;19904;-67
2022/04/20 03:46:35;;;;;;;;;;;14.20;55.30;;;;;;5102786;28;20192;-68
2022/04/20 03:49:01;;;;;;;;;;;14.20;55.20;;;;;;5102853;28;19908;-67
2022/04/20 03:51:26;;;;;;;;;;;14.10;54.90;;;;;;5102802;28;19957;-67
2022/04/20 03:53:52;;;;;;;;;;;14.20;55.10;;;;;;5102703;28;20026;-67
2022/04/20 03:56:18;;;;;;;;;;;14.20;55.10;;;;;;5102261;28;19962;-67
2022/04/20 03:58:43;;;;;;;;;;;14.20;55.00;;;;;;5102648;28;19969;-67
2022/04/20 04:01:09;;;;;;;;;;;14.20;55.00;;;;;;5102194;28;19914;-67
2022/04/20 04:03:34;;;;;;;;;;;14.20;54.90;;;;;;5102587;28;19908;-66
2022/04/20 04:06:00;;;;;;;;;;;14.10;54.90;;;;;;5102480;28;19979;-67
2022/04/20 04:08:25;;;;;;;;;;;14.20;54.90;;;;;;5102405;28;19900;-67
2022/04/20 04:10:51;;;;;;;;;;;14.20;54.90;;;;;;5102386;28;19908;-66
2022/04/20 04:13:17;;;;;;;;;;;14.20;54.90;;;;;;5101077;28;20021;-67
2022/04/20 04:15:43;;;;;;;;;;;14.20;54.90;;;;;;5102357;28;19944;-67
2022/04/20 04:18:09;;;;;;;;;;;14.20;54.80;;;;;;5102219;28;20238;-66
2022/04/20 04:20:35;;;;;;;;;;;14.20;54.80;;;;;;5102285;28;19908;-67
2022/04/20 04:23:00;;;;;;;;;;;14.20;54.60;;;;;;5102189;28;19900;-66
2022/04/20 04:25:26;;;;;;;;;;;14.20;54.80;;;;;;5102094;28;19904;-67
2022/04/20 04:27:51;;;;;;;;;;;14.20;54.90;;;;;;5102072;28;19915;-67
2022/04/20 04:30:17;;;;;;;;;;;14.20;54.90;;;;;;5102029;28;19958;-66
2022/04/20 04:32:42;;;;;;;;;;;14.10;54.90;;;;;;5101998;28;19931;-66
2022/04/20 04:35:08;;;;;;;;;;;14.10;54.90;;;;;;5101897;28;19912;-66
2022/04/20 04:37:34;;;;;;;;;;;14.10;54.90;;;;;;5101955;28;20179;-66
2022/04/20 04:40:00;;;;;;;;;;;14.10;54.80;;;;;;5101860;28;19908;-67
2022/04/20 04:42:26;;;;;;;;;;;14.10;54.70;;;;;;5101815;28;19974;-67
2022/04/20 04:44:52;;;;;;;;;;;14.20;54.60;;;;;;5101671;28;19926;-67
2022/04/20 04:50:03;;;;;;;;;;;14.20;54.80;;;;;;5101715;28;19915;-67
2022/04/20 04:52:29;;;;;;;;;;;14.20;54.90;;;;;;5101573;28;19957;-67
2022/04/20 04:54:54;;;;;;;;;;;14.20;54.70;;;;;;5101607;28;19908;-67
2022/04/20 04:57:20;;;;;;;;;;;14.10;54.60;;;;;;5101354;28;19923;-67
2022/04/20 04:59:45;;;;;;;;;;;14.10;54.70;;;;;;5101479;28;20180;-67
2022/04/20 05:02:11;;;;;;;;;;;14.10;54.80;;;;;;5101449;28;19943;-66
2022/04/20 05:04:37;;;;;;;;;;;14.10;54.70;;;;;;5101258;28;19907;-66
2022/04/20 05:07:03;;;;;;;;;;;14.10;55.00;;;;;;5101356;28;19908;-67
2022/04/20 05:09:29;;;;;;;;;;;14.10;54.90;;;;;;5101256;28;19952;-66
2022/04/20 05:11:54;;;;;;;;;;;14.10;54.80;;;;;;5101236;28;19908;-68
2022/04/20 05:14:20;;;;;;;;;;;14.20;54.90;;;;;;5101125;28;20138;-67
2022/04/20 05:16:46;;;;;;;;;;;14.10;54.90;;;;;;5101170;28;20226;-67
2022/04/20 05:19:11;;;;;;;;;;;14.10;55.00;;;;;;5101087;28;19907;-67
2022/04/20 05:21:37;;;;;;;;;;;14.10;54.90;;;;;;5101058;28;19911;-67
2022/04/20 05:24:03;;;;;;;;;;;14.10;54.90;;;;;;5101036;28;19907;-67
2022/04/20 05:26:28;;;;;;;;;;;14.10;54.90;;;;;;5100867;28;19962;-68
2022/04/20 05:28:54;;;;;;;;;;;14.10;54.90;;;;;;5100985;28;19907;-67
2022/04/20 05:31:19;;;;;;;;;;;14.00;55.10;;;;;;5100817;28;19962;-66
2022/04/20 05:33:45;;;;;;;;;;;14.10;54.90;;;;;;5100858;28;20108;-67
2022/04/20 05:36:11;;;;;;;;;;;14.10;54.70;;;;;;5100755;28;19900;-66
2022/04/20 05:41:40;;;;;;;;;;;14.10;54.90;;;;;;5100736;28;19919;-66
2022/04/20 05:44:09;;;;;;;;;;;14.10;54.90;;;;;;5100701;28;19951;-67
2022/04/20 05:46:35;;;;;;;;;;;14.20;54.80;;;;;;5100618;28;19946;-66
2022/04/20 05:49:01;;;;;;;;;;;14.10;54.90;;;;;;5100543;28;20192;-67
2022/04/20 05:51:27;;;;;;;;;;;14.10;55.20;;;;;;5100749;28;20178;-66
2022/04/20 05:53:52;;;;;;;;;;;14.10;55.20;;;;;;5100483;28;19916;-67
2022/04/20 05:56:18;;;;;;;;;;;14.10;55.00;;;;;;5100323;28;19987;-67
2022/04/20 05:58:50;;;;;;;;;;;14.10;55.00;;;;;;5099973;28;19915;-66
2022/04/20 06:01:16;;;;;;;;;;;14.10;55.00;;;;;;5100351;28;20096;-68
2022/04/20 06:03:42;;;;;;;;;;;14.20;54.90;;;;;;5100317;28;19907;-68
2022/04/20 06:06:07;;;;;;;;;;;14.20;54.80;;;;;;5100208;28;20448;-67
2022/04/20 06:08:33;;;;;;;;;;;14.20;54.90;;;;;;5100306;28;20163;-67
2022/04/20 06:10:59;;;;;;;;;;;14.20;54.80;;;;;;5100401;28;19912;-66
2022/04/20 06:13:25;;;;;;;;;;;14.20;54.70;;;;;;5100272;28;19946;-66
2022/04/20 06:15:50;;;;;;;;;;;14.20;54.70;;;;;;5100127;28;19912;-67
2022/04/20 06:18:16;;;;;;;;;;;14.30;54.60;;;;;;5100075;28;19923;-66
2022/04/20 06:20:42;;;;;;;;;;;14.30;54.60;;;;;;5100120;28;19908;-67
2022/04/20 06:23:07;;;;;;;;;;;14.30;54.40;;;;;;5100023;28;19908;-67
2022/04/20 06:25:33;;;;;;;;;;;14.20;54.40;;;;;;5099972;28;19915;-67
2022/04/20 06:27:59;;;;;;;;;;;14.20;54.60;;;;;;5099889;28;19908;-66
2022/04/20 06:30:24;;;;;;;;;;;14.20;54.50;;;;;;5099902;28;19908;-66
2022/04/20 06:32:50;;;;;;;;;;;14.20;54.60;;;;;;5099926;28;19954;-67
2022/04/20 06:35:15;;;;;;;;;;;14.20;54.60;;;;;;5099902;28;19900;-66
2022/04/20 06:37:41;;;;;;;;;;;14.20;54.50;;;;;;5099924;28;19931;-67
2022/04/20 06:40:07;;;;;;;;;;;14.20;54.70;;;;;;5099828;28;19908;-66
2022/04/20 06:42:33;;;;;;;;;;;14.20;54.60;;;;;;5100188;28;19908;-66
2022/04/20 06:44:58;;;;;;;;;;;14.20;54.60;;;;;;5099776;28;19911;-67
2022/04/20 06:47:24;;;;;;;;;;;14.30;54.50;;;;;;5100058;28;19931;-66
2022/04/20 06:49:49;;;;;;;;;;;14.30;54.50;;;;;;5099735;28;19927;-66
2022/04/20 07:00:28;;;;;;;;;;;14.40;54.30;;;;;;5099646;28;20195;-67
2022/04/20 07:03:00;;;;;;;;;;;14.30;54.30;;;;;;5099727;28;19908;-67
2022/04/20 07:05:26;;;;;;;;;;;14.30;54.30;;;;;;5099507;28;19950;-67
2022/04/20 07:07:51;;;;;;;;;;;14.30;54.40;;;;;;5099560;28;19904;-67
2022/04/20 07:10:17;;;;;;;;;;;14.30;54.30;;;;;;5101857;28;19908;-67
2022/04/20 07:12:42;;;;;;;;;;;14.30;54.30;;;;;;5103564;28;19908;-67
2022/04/20 07:15:08;;;;;;;;;;;14.40;54.30;;;;;;5103508;28;20103;-67
2022/04/20 07:17:34;;;;;;;;;;;14.30;54.20;;;;;;5103688;28;20210;-66
2022/04/20 07:20:01;;;;;;;;;;;14.40;54.10;;;;;;5103326;28;20002;-67
2022/04/20 07:22:27;;;;;;;;;;;14.40;54.10;;;;;;5103368;28;19939;-67
2022/04/20 07:24:52;;;;;;;;;;;14.40;54.00;;;;;;5103198;28;19908;-67
2022/04/20 07:27:18;;;;;;;;;;;14.40;54.10;;;;;;5103280;28;19908;-66
2022/04/20 07:29:43;;;;;;;;;;;14.40;54.70;;;;;;5103232;28;19931;-67
2022/04/20 07:32:09;;;;;;;;;;;14.40;54.10;;;;;;5103189;28;20472;-67
2022/04/20 07:34:35;;;;;;;;;;;14.40;54.00;;;;;;5103211;28;20196;-67
2022/04/20 07:37:00;;;;;;;;;;;14.40;54.10;;;;;;5103074;28;19908;-66
2022/04/20 07:39:26;;;;;;;;;;;14.40;54.10;;;;;;5103084;28;19900;-68
2022/04/20 07:41:51;;;;;;;;;;;14.40;54.10;;;;;;5103038;28;19986;-66
2022/04/20 07:44:17;;;;;;;;;;;14.40;54.70;;;;;;5102982;28;20296;-66
2022/04/20 07:46:42;;;;;;;;;;;14.40;54.10;;;;;;5103129;28;20174;-66
2022/04/20 07:51:52;;;;;;;;;;;14.40;54.00;;;;;;5102863;28;19983;-67
2022/04/20 07:54:18;;;;;;;;;;;14.30;54.00;;;;;;5102812;28;19915;-66
2022/04/20 07:56:43;;;;;;;;;;;14.40;54.10;;;;;;5102642;28;19912;-66
2022/04/20 07:59:09;;;;;;;;;;;14.30;54.10;;;;;;5102669;28;19951;-66
2022/04/20 08:01:35;;;;;;;;;;;14.40;54.10;;;;;;5102617;28;19908;-67
2022/04/20 08:04:00;;;;;;;;;;;14.40;54.10;;;;;;5102586;28;19900;-66
2022/04/20 08:06:27;;;;;;;;;;;14.30;54.10;;;;;;5101238;28;19977;-67
2022/04/20 08:08:52;;;;;;;;;;;14.40;54.10;;;;;;5102871;28;19908;-66
2022/04/20 08:11:18;;;;;;;;;;;14.40;54.10;;;;;;5102466;28;19915;-67
2022/04/20 08:16:29;;;;;;;;;;;14.40;54.00;;;;;;5102321;28;19915;-68
2022/04/20 08:18:54;;;;;;;;;;;14.40;54.10;;;;;;5102415;28;19900;-66
2022/04/20 08:21:20;;;;;;;;;;;14.40;54.10;;;;;;5101943;28;19914;-67
2022/04/20 08:23:46;;;;;;;;;;;14.40;54.10;;;;;;5102334;28;19900;-67
2022/04/20 08:26:13;;;;;;;;;;;14.40;54.10;;;;;;5102133;28;19931;-66
2022/04/20 08:28:39;;;;;;;;;;;14.40;54.10;;;;;;5102139;28;19908;-66
2022/04/20 08:31:04;;;;;;;;;;;14.40;54.10;;;;;;5102153;28;19915;-67
2022/04/20 08:33:30;;;;;;;;;;;14.40;54.00;;;;;;5102045;28;19916;-67
2022/04/20 08:35:56;;;;;;;;;;;14.40;54.00;;;;;;5102113;28;19900;-67
2022/04/20 08:38:22;;;;;;;;;;;14.40;54.10;;;;;;5102266;28;19951;-66
2022/04/20 08:40:49;;;;;;;;;;;14.40;54.10;;;;;;5102291;28;20024;-67
2022/04/20 08:43:15;;;;;;;;;;;14.40;54.10;;;;;;5101913;28;19907;-66
2022/04/20 08:45:41;;;;;;;;;;;14.40;54.10;;;;;;5101750;28;20142;-66
2022/04/20 08:48:07;;;;;;;;;;;14.40;54.10;;;;;;5100550;28;19907;-67
2022/04/20 08:50:32;;;;;;;;;;;14.40;54.10;;;;;;5101786;28;20101;-66
2022/04/20 08:53:01;;;;;;;;;;;14.40;54.10;;;;;;5100387;28;19908;-68
2022/04/20 08:55:28;;;;;;;;;;;14.40;54.20;;;;;;5101825;28;19935;-66
2022/04/20 08:57:54;;;;;;;;;;;14.40;54.20;;;;;;5101555;28;19926;-67
2022/04/20 09:00:22;;;;;;;;;;;14.40;54.20;;;;;;5101513;28;19914;-66
2022/04/20 09:02:58;;;;;;;;;;;14.40;54.20;;;;;;5101538;28;19915;-66
2022/04/20 09:05:24;;;;;;;;;;;14.40;54.20;;;;;;5101419;28;19933;-67
2022/04/20 09:07:50;;;;;;;;;;;14.40;54.20;;;;;;5101390;28;19908;-66
2022/04/20 09:10:19;;;;;;;;;;;14.50;54.10;;;;;;5101363;28;19907;-67
2022/04/20 09:12:45;;;;;;;;;;;14.40;54.10;;;;;;5101337;28;19908;-67
2022/04/20 09:15:14;;;;;;;;;;;14.50;54.20;;;;;;5101246;28;20127;-67
2022/04/20 09:17:41;;;;;;;;;;;14.50;54.10;;;;;;5101119;28;19910;-67
2022/04/20 09:20:07;;;;;;;;;;;14.40;54.20;;;;;;5101174;28;19982;-66
2022/04/20 09:22:34;;;;;;;;;;;14.40;54.20;;;;;;5101128;28;19916;-66
2022/04/20 09:25:07;;;;;;;;;;;14.50;54.20;;;;;;5099705;28;19958;-67
2022/04/20 09:27:34;;;;;;;;;;;14.50;54.20;;;;;;5101068;28;19908;-67
2022/04/20 09:29:59;;;;;;;;;;;14.50;54.10;;;;;;5100948;28;19907;-67
2022/04/20 09:32:31;;;;;;;;;;;14.50;54.10;;;;;;5100162;28;19908;-66
2022/04/20 09:34:58;;;;;;;;;;;14.50;54.20;;;;;;5100866;28;20346;-67
2022/04/20 09:37:23;;;;;;;;;;;14.50;54.20;;;;;;5100886;28;19930;-67
2022/04/20 09:39:52;;;;;;;;;;;14.50;54.20;;;;;;5100774;28;19934;-66
2022/04/20 09:42:18;;;;;;;;;;;14.50;54.30;;;;;;5100761;28;19908;-67
2022/04/20 09:44:59;;;;;;;;;;;14.40;54.30;;;;;;5100659;28;19904;-66
2022/04/20 09:50:10;;;;;;;;;;;14.50;54.20;;;;;;5100593;28;19949;-66
2022/04/20 09:52:40;;;;;;;;;;;14.50;54.30;;;;;;5099304;28;20131;-67
2022/04/20 09:55:06;;;;;;;;;;;14.50;54.30;;;;;;5100535;28;19908;-68
2022/04/20 09:57:33;;;;;;;;;;;14.50;54.30;;;;;;5100387;28;19979;-67
2022/04/20 10:00:02;;;;;;;;;;;14.50;54.30;;;;;;5100445;28;19927;-67
2022/04/20 10:02:29;;;;;;;;;;;14.50;54.30;;;;;;5100471;28;19908;-67
2022/04/20 10:04:56;;;;;;;;;;;14.50;54.30;;;;;;5100343;28;19987;-66
2022/04/20 10:07:21;;;;;;;;;;;14.50;54.30;;;;;;5100332;28;19924;-67
2022/04/20 10:09:47;;;;;;;;;;;14.50;54.30;;;;;;5100339;28;19953;-66
2022/04/20 10:12:14;;;;;;;;;;;14.50;54.30;;;;;;5100269;28;19908;-67
2022/04/20 10:17:25;;;;;;;;;;;14.60;54.30;;;;;;5100224;28;19980;-66
2022/04/20 10:19:52;;;;;;;;;;;14.50;54.30;;;;;;5100170;28;19907;-66
2022/04/20 10:22:18;;;;;;;;;;;14.50;54.40;;;;;;5100158;28;19975;-67
2022/04/20 10:24:45;;;;;;;;;;;14.60;54.40;;;;;;5100101;28;20199;-67
2022/04/20 10:27:18;;;;;;;;;;;14.60;54.30;;;;;;5100032;28;19915;-68
2022/04/20 10:29:59;;;;;;;;;;;14.50;54.30;;;;;;5100123;28;19953;-67
2022/04/20 10:32:25;;;;;;;;;;;14.50;54.30;;;;;;5100050;28;19907;-67
2022/04/20 10:34:52;;;;;;;;;;;14.50;54.40;;;;;;5099980;28;19904;-67
2022/04/20 10:37:25;;;;;;;;;;;14.60;54.30;;;;;;5099980;28;19908;-66
2022/04/20 10:40:11;;;;;;;;;;;14.60;54.30;;;;;;5099987;28;19900;-66
2022/04/20 10:42:36;;;;;;;;;;;14.60;54.30;;;;;;5099766;28;19961;-67
2022/04/20 10:45:06;;;;;;;;;;;14.60;54.30;;;;;;5103551;28;20212;-67
2022/04/20 10:47:42;;;;;;;;;;;14.50;54.40;;;;;;5104090;28;20001;-67
2022/04/20 10:50:20;;;;;;;;;;;14.60;54.50;;;;;;5104091;28;19930;-66
2022/04/20 10:53:03;;;;;;;;;;;14.60;54.40;;;;;;5104019;28;19907;-66
2022/04/20 10:55:31;;;;;;;;;;;14.60;54.40;;;;;;5103982;28;19943;-66
2022/04/20 10:58:01;;;;;;;;;;;14.60;54.40;;;;;;5103634;28;19942;-67
2022/04/20 11:00:32;;;;;;;;;;;14.60;54.40;;;;;;5103865;28;19907;-66
2022/04/20 11:03:00;;;;;;;;;;;14.60;54.40;;;;;;5104167;28;19908;-67
2022/04/20 11:05:25;;;;;;;;;;;14.60;54.40;;;;;;5103750;28;19911;-67
2022/04/20 11:08:04;;;;;;;;;;;14.60;54.40;;;;;;5102518;28;19991;-67
2022/04/20 11:10:31;;;;;;;;;;;14.60;54.40;;;;;;5103692;28;19907;-66
2022/04/20 11:19:02;;;;;;;;;;;14.70;54.20;;;;;;5103636;28;19979;-67
2022/04/20 11:21:28;;;;;;;;;;;14.70;54.20;;;;;;5102263;28;19950;-66
2022/04/20 11:24:14;;;;;;;;;;;14.70;54.40;;;;;;5103550;28;19903;-67
2022/04/20 11:26:51;;;;;;;;;;;14.70;54.40;;;;;;5102950;28;19916;-67
2022/04/20 11:29:18;;;;;;;;;;;14.70;54.50;;;;;;5102021;28;19908;-67
2022/04/20 11:31:45;;;;;;;;;;;14.70;54.40;;;;;;5103477;28;19953;-67
2022/04/20 11:34:11;;;;;;;;;;;14.70;54.50;;;;;;5103271;28;19900;-66
2022/04/20 11:36:38;;;;;;;;;;;14.70;54.40;;;;;;5101910;28;20124;-67
2022/04/20 11:39:03;;;;;;;;;;;14.70;54.40;;;;;;5103189;28;19908;-67
2022/04/20 11:41:29;;;;;;;;;;;14.70;54.40;;;;;;5103115;28;19908;-67
2022/04/20 11:43:54;;;;;;;;;;;14.70;54.40;;;;;;5103173;28;19915;-66
2022/04/20 11:46:20;;;;;;;;;;;14.80;54.40;;;;;;5103009;28;19912;-67
2022/04/20 11:48:50;;;;;;;;;;;14.80;54.30;;;;;;5102999;28;19900;-68
2022/04/20 11:51:19;;;;;;;;;;;14.80;54.30;;;;;;5102928;28;20100;-67
2022/04/20 11:53:46;;;;;;;;;;;14.80;54.40;;;;;;5102974;28;19914;-66
2022/04/20 11:56:12;;;;;;;;;;;14.80;54.40;;;;;;5101810;28;19916;-67
2022/04/20 11:58:38;;;;;;;;;;;14.90;54.40;;;;;;5102882;28;20146;-67
2022/04/20 12:01:07;;;;;;;;;;;14.80;54.40;;;;;;5102910;28;19908;-67
2022/04/20 12:03:36;;;;;;;;;;;14.80;54.50;;;;;;5102830;28;19908;-67
2022/04/20 12:06:03;;;;;;;;;;;14.80;54.50;;;;;;5102564;28;19927;-67
2022/04/20 12:08:29;;;;;;;;;;;14.80;54.60;;;;;;5102667;28;19916;-67
2022/04/20 12:10:55;;;;;;;;;;;14.80;54.60;;;;;;5102688;28;19908;-66
2022/04/20 12:13:29;;;;;;;;;;;14.90;54.50;;;;;;5102581;28;19900;-66
2022/04/20 12:16:02;;;;;;;;;;;14.90;54.50;;;;;;5102565;28;19916;-67
2022/04/20 12:18:33;;;;;;;;;;;14.90;54.50;;;;;;5102417;28;19915;-67
2022/04/20 12:21:02;;;;;;;;;;;14.90;54.60;;;;;;5102486;28;19962;-67
2022/04/20 12:23:34;;;;;;;;;;;14.90;54.50;;;;;;5102447;28;19908;-66
2022/04/20 12:26:06;;;;;;;;;;;14.80;54.50;;;;;;5102329;28;19953;-66
2022/04/20 12:28:45;;;;;;;;;;;14.90;54.60;;;;;;5102387;28;19922;-66
2022/04/20 12:31:12;;;;;;;;;;;14.80;54.60;;;;;;5102354;28;19931;-66
2022/04/20 12:33:38;;;;;;;;;;;14.80;54.60;;;;;;5102166;28;19915;-67
2022/04/20 12:36:08;;;;;;;;;;;14.80;54.50;;;;;;5102279;28;19941;-66
2022/04/20 12:38:44;;;;;;;;;;;14.80;54.60;;;;;;5102129;28;19915;-67
2022/04/20 12:41:29;;;;;;;;;;;14.80;54.60;;;;;;5102122;28;19943;-68
2022/04/20 12:43:54;;;;;;;;;;;14.80;54.60;;;;;;5102081;28;19907;-67
2022/04/20 12:46:20;;;;;;;;;;;14.90;54.60;;;;;;5101914;28;19916;-67
2022/04/20 12:48:47;;;;;;;;;;;14.80;54.50;;;;;;5101866;28;19968;-67
2022/04/20 12:51:21;;;;;;;;;;;14.90;54.50;;;;;;5101869;28;19923;-67
2022/04/20 12:53:48;;;;;;;;;;;14.90;54.50;;;;;;5101827;28;19908;-67
2022/04/20 13:04:26;;;;;;;;;;;15.00;54.30;;;;;;5101645;28;20005;-67
2022/04/20 13:06:52;;;;;;;;;;;15.00;54.20;;;;;;5101486;28;19920;-67
2022/04/20 13:09:18;;;;;;;;;;;15.00;54.10;;;;;;5101583;28;19908;-67
2022/04/20 13:11:43;;;;;;;;;;;15.10;54.10;;;;;;5101570;28;19993;-67
2022/04/20 13:14:09;;;;;;;;;;;15.00;54.10;;;;;;5101471;28;19900;-66
2022/04/20 13:16:34;;;;;;;;;;;15.10;54.10;;;;;;5101430;28;20103;-67
2022/04/20 13:19:00;;;;;;;;;;;15.10;54.10;;;;;;5101373;28;20249;-66
2022/04/20 13:21:26;;;;;;;;;;;15.10;54.10;;;;;;5101312;28;19900;-67
2022/04/20 13:23:54;;;;;;;;;;;15.10;54.10;;;;;;5100042;28;19986;-68
2022/04/20 13:29:04;;;;;;;;;;;15.00;54.30;;;;;;5101184;28;19946;-66
2022/04/20 13:31:31;;;;;;;;;;;15.00;54.30;;;;;;5101045;28;19912;-66
2022/04/20 13:33:56;;;;;;;;;;;15.00;54.40;;;;;;5101054;28;19942;-67
2022/04/20 13:36:22;;;;;;;;;;;15.00;54.50;;;;;;5101050;28;20146;-66
2022/04/20 13:38:47;;;;;;;;;;;15.00;54.30;;;;;;5100973;28;19915;-67
2022/04/20 13:41:13;;;;;;;;;;;15.00;54.30;;;;;;5100987;28;20115;-67
2022/04/20 13:43:38;;;;;;;;;;;15.10;54.30;;;;;;5100866;28;19919;-67
2022/04/20 13:46:04;;;;;;;;;;;15.10;54.10;;;;;;5100847;28;19911;-66
2022/04/20 13:48:30;;;;;;;;;;;15.20;54.10;;;;;;5100733;28;19974;-67
2022/04/20 13:50:55;;;;;;;;;;;15.20;54.00;;;;;;5100756;28;20258;-67
2022/04/20 13:53:21;;;;;;;;;;;15.20;53.80;;;;;;5100751;28;19946;-67
2022/04/20 13:55:47;;;;;;;;;;;15.30;53.80;;;;;;5100572;28;19965;-67
2022/04/20 13:58:13;;;;;;;;;;;15.20;53.90;;;;;;5100671;28;19919;-68
2022/04/20 14:00:40;;;;;;;;;;;15.20;53.90;;;;;;5100552;28;19908;-67
2022/04/20 14:03:07;;;;;;;;;;;15.30;53.80;;;;;;5100619;28;19899;-67
2022/04/20 14:05:32;;;;;;;;;;;15.30;53.80;;;;;;5100419;28;19951;-68
2022/04/20 14:07:58;;;;;;;;;;;15.30;53.90;;;;;;5100491;28;20132;-67
2022/04/20 14:10:23;;;;;;;;;;;15.40;53.80;;;;;;5100518;28;20112;-68
2022/04/20 14:12:49;;;;;;;;;;;15.40;53.60;;;;;;5100335;28;19911;-67
2022/04/20 14:15:16;;;;;;;;;;;15.40;53.60;;;;;;5100426;28;19908;-66
2022/04/20 14:17:44;;;;;;;;;;;15.50;53.50;;;;;;5100248;28;19998;-66
2022/04/20 14:20:09;;;;;;;;;;;15.50;53.40;;;;;;5100072;28;20394;-66
2022/04/20 14:22:35;;;;;;;;;;;15.50;53.40;;;;;;5100302;28;19915;-67
2022/04/20 14:33:13;;;;;;;;;;;15.60;53.30;;;;;;5100235;28;20223;-67
2022/04/20 14:35:39;;;;;;;;;;;15.70;53.20;;;;;;5100099;28;19908;-67
2022/04/20 14:38:05;;;;;;;;;;;15.70;53.30;;;;;;5100127;28;19939;-67
2022/04/20 14:40:30;;;;;;;;;;;15.60;53.30;;;;;;5100127;28;19907;-67
2022/04/20 14:42:56;;;;;;;;;;;15.60;53.70;;;;;;5100016;28;20243;-68
2022/04/20 14:45:23;;;;;;;;;;;15.70;53.40;;;;;;5099964;28;19965;-67
2022/04/20 14:47:49;;;;;;;;;;;15.70;53.40;;;;;;5100155;28;20163;-68
2022/04/20 14:50:15;;;;;;;;;;;15.60;53.50;;;;;;5099986;28;19947;-67
2022/04/20 14:52:43;;;;;;;;;;;15.60;53.50;;;;;;5099948;28;19900;-67
2022/04/20 14:55:09;;;;;;;;;;;15.70;53.50;;;;;;5099915;28;20202;-67
2022/04/20 14:57:35;;;;;;;;;;;15.70;53.30;;;;;;5099819;28;19919;-67
2022/04/20 15:00:01;;;;;;;;;;;15.80;53.20;;;;;;5099967;28;19908;-66
2022/04/20 15:02:26;;;;;;;;;;;15.90;53.10;;;;;;5099878;28;20385;-67
2022/04/20 15:04:52;;;;;;;;;;;15.90;53.00;;;;;;5099816;28;19946;-67